createdAt,value
2018-05-31T00:02:00.949Z,22.20
2018-05-31T00:04:28.487Z,22.35
2018-05-31T00:06:56.105Z,21.81
2018-05-31T00:09:23.653Z,22.28
2018-05-31T00:11:51.370Z,22.04
2018-05-31T00:14:18.908Z,22.21
2018-05-31T00:16:46.444Z,21.97
2018-05-31T00:19:14.020Z,22.15
2018-05-31T00:21:41.569Z,22.13
2018-05-31T00:24:09.504Z,22.24
2018-05-31T00:26:37.024Z,22.23
2018-05-31T00:29:04.574Z,22.38
2018-05-31T00:31:32.141Z,22.31
2018-05-31T00:33:59.681Z,22.12
2018-05-31T00:36:27.381Z,22.28
2018-05-31T00:38:54.924Z,22.23
2018-05-31T00:41:22.479Z,22.26
2018-05-31T00:43:50.048Z,22.32
2018-05-31T00:46:17.580Z,22.37
2018-05-31T00:48:45.304Z,22.41
2018-05-31T00:51:12.824Z,22.42
2018-05-31T00:53:40.364Z,22.56
2018-05-31T00:56:16.951Z,22.54
2018-05-31T00:58:44.490Z,22.48
2018-05-31T01:01:13.007Z,22.53
2018-05-31T01:03:40.541Z,22.63
2018-05-31T01:06:08.097Z,22.68
2018-05-31T01:08:35.664Z,22.69
2018-05-31T01:11:03.204Z,22.62
2018-05-31T01:13:30.933Z,22.63
2018-05-31T01:15:58.484Z,22.62
2018-05-31T01:18:26.029Z,22.49
2018-05-31T01:20:53.597Z,22.37
2018-05-31T01:23:21.906Z,22.31
2018-05-31T01:25:49.660Z,22.24
2018-05-31T01:28:17.188Z,22.13
2018-05-31T01:30:44.737Z,22.30
2018-05-31T01:33:12.292Z,22.24
2018-05-31T01:35:39.826Z,22.32
2018-05-31T01:41:10.480Z,22.14
2018-05-31T01:43:39.543Z,21.98
2018-05-31T01:46:07.725Z,21.87
2018-05-31T01:48:35.267Z,21.76
2018-05-31T01:51:02.812Z,21.56
2018-05-31T01:53:30.381Z,21.39
2018-05-31T01:55:57.952Z,21.38
2018-05-31T01:58:25.508Z,21.49
2018-05-31T02:00:53.039Z,21.35
2018-05-31T02:03:20.601Z,21.12
2018-05-31T02:05:48.150Z,20.88
2018-05-31T02:08:15.725Z,21.08
2018-05-31T02:10:43.332Z,21.37
2018-05-31T02:13:10.864Z,21.07
2018-05-31T02:15:38.437Z,21.03
2018-05-31T02:18:05.981Z,21.27
2018-05-31T02:20:33.557Z,21.37
2018-05-31T02:23:01.084Z,21.34
2018-05-31T02:25:28.627Z,21.33
2018-05-31T02:27:56.193Z,21.25
2018-05-31T02:30:23.725Z,21.19
2018-05-31T02:32:51.309Z,21.06
2018-05-31T02:35:18.856Z,21.17
2018-05-31T02:37:46.395Z,21.13
2018-05-31T02:40:13.964Z,21.18
2018-05-31T02:42:41.503Z,21.10
2018-05-31T02:45:09.077Z,21.09
2018-05-31T02:47:36.611Z,21.10
2018-05-31T02:50:04.155Z,21.20
2018-05-31T02:52:31.750Z,21.21
2018-05-31T02:54:59.477Z,21.06
2018-05-31T02:57:27.041Z,21.02
2018-05-31T02:59:54.581Z,21.09
2018-05-31T03:02:22.125Z,21.16
2018-05-31T03:04:49.689Z,21.16
2018-05-31T03:07:17.250Z,21.14
2018-05-31T03:09:44.929Z,21.10
2018-05-31T03:12:12.478Z,21.06
2018-05-31T03:14:40.012Z,21.06
2018-05-31T03:17:07.573Z,21.03
2018-05-31T03:19:35.106Z,20.97
2018-05-31T03:22:02.840Z,20.90
2018-05-31T03:24:30.372Z,20.87
2018-05-31T03:26:57.915Z,20.92
2018-05-31T03:29:25.473Z,20.85
2018-05-31T03:31:53.013Z,20.82
2018-05-31T03:34:20.597Z,20.74
2018-05-31T03:36:48.127Z,20.63
2018-05-31T03:39:15.661Z,20.77
2018-05-31T03:41:43.246Z,20.77
2018-05-31T03:44:10.789Z,20.68
2018-05-31T03:46:38.836Z,20.71
2018-05-31T03:49:06.365Z,20.79
2018-05-31T03:51:33.909Z,20.78
2018-05-31T03:54:01.474Z,20.80
2018-05-31T03:56:29.024Z,20.67
2018-05-31T03:58:56.841Z,20.71
2018-05-31T04:01:25.484Z,20.69
2018-05-31T04:03:52.988Z,20.51
2018-05-31T04:06:20.585Z,20.64
2018-05-31T04:08:48.125Z,20.73
2018-05-31T04:11:15.699Z,20.82
2018-05-31T04:13:43.236Z,20.91
2018-05-31T04:16:10.772Z,21.00
2018-05-31T04:18:38.335Z,21.08
2018-05-31T04:21:05.883Z,21.14
2018-05-31T04:23:34.200Z,21.23
2018-05-31T04:26:01.731Z,21.21
2018-05-31T04:28:29.308Z,21.28
2018-05-31T04:30:56.942Z,21.39
2018-05-31T04:33:24.469Z,21.48
2018-05-31T04:35:52.392Z,21.27
2018-05-31T04:38:19.934Z,21.13
2018-05-31T04:40:47.471Z,21.14
2018-05-31T04:43:15.033Z,21.25
2018-05-31T04:45:42.568Z,21.38
2018-05-31T04:48:10.276Z,21.41
2018-05-31T04:50:37.808Z,21.53
2018-05-31T04:53:05.332Z,21.51
2018-05-31T04:55:32.893Z,21.50
2018-05-31T04:58:00.434Z,21.59
2018-05-31T05:00:28.176Z,21.59
2018-05-31T05:02:55.721Z,21.76
2018-05-31T05:05:23.260Z,21.76
2018-05-31T05:07:50.825Z,21.86
2018-05-31T05:10:18.368Z,21.86
2018-05-31T05:12:46.386Z,21.50
2018-05-31T05:15:14.470Z,21.93
2018-05-31T05:17:42.011Z,22.03
2018-05-31T05:20:09.572Z,22.17
2018-05-31T05:22:37.159Z,22.51
2018-05-31T05:25:04.761Z,22.48
2018-05-31T05:27:32.292Z,22.49
2018-05-31T05:29:59.828Z,22.18
2018-05-31T05:32:27.433Z,22.00
2018-05-31T05:34:54.932Z,22.13
2018-05-31T05:37:22.896Z,22.10
2018-05-31T05:39:50.427Z,22.45
2018-05-31T05:42:17.972Z,22.74
2018-05-31T05:44:45.546Z,22.61
2018-05-31T05:47:13.155Z,22.81
2018-05-31T05:49:40.896Z,22.75
2018-05-31T05:52:08.432Z,22.62
2018-05-31T05:54:35.963Z,22.89
2018-05-31T05:57:03.520Z,22.83
2018-05-31T05:59:31.053Z,22.86
2018-05-31T06:01:59.943Z,22.93
2018-05-31T06:04:27.477Z,23.20
2018-05-31T06:06:55.008Z,23.36
2018-05-31T06:09:22.585Z,23.63
2018-05-31T06:11:50.121Z,23.61
2018-05-31T06:14:17.685Z,23.84
2018-05-31T06:16:45.252Z,23.68
2018-05-31T06:19:12.978Z,24.17
2018-05-31T06:21:40.546Z,24.04
2018-05-31T06:24:08.101Z,23.92
2018-05-31T06:26:35.673Z,23.79
2018-05-31T06:29:03.209Z,24.31
2018-05-31T06:31:31.269Z,23.99
2018-05-31T06:33:58.820Z,24.10
2018-05-31T06:36:27.296Z,24.73
2018-05-31T06:38:54.856Z,24.20
2018-05-31T06:41:22.378Z,25.00
2018-05-31T06:43:51.041Z,25.36
2018-05-31T06:46:18.608Z,25.36
2018-05-31T06:48:49.117Z,25.90
2018-05-31T06:51:17.165Z,26.30
2018-05-31T06:53:44.996Z,26.65
2018-05-31T06:56:12.513Z,27.25
2018-05-31T06:58:40.157Z,27.96
2018-05-31T07:01:08.230Z,28.07
2018-05-31T07:03:35.918Z,29.20
2018-05-31T07:06:03.436Z,29.17
2018-05-31T07:08:31.070Z,28.38
2018-05-31T07:10:58.615Z,29.21
2018-05-31T07:13:26.142Z,28.27
2018-05-31T07:15:54.136Z,28.21
2018-05-31T07:18:21.639Z,28.43
2018-05-31T07:20:49.840Z,28.30
2018-05-31T07:23:17.380Z,28.89
2018-05-31T07:25:44.896Z,29.55
2018-05-31T07:28:12.452Z,30.21
2018-05-31T07:30:39.965Z,30.23
2018-05-31T07:33:07.484Z,30.52
2018-05-31T07:35:35.026Z,30.99
2018-05-31T07:38:02.537Z,31.23
2018-05-31T07:40:30.281Z,30.88
2018-05-31T07:42:57.797Z,31.15
2018-05-31T07:45:25.325Z,31.78
2018-05-31T07:47:52.872Z,32.11
2018-05-31T07:50:20.385Z,31.62
2018-05-31T07:52:48.186Z,31.22
2018-05-31T07:55:15.704Z,31.90
2018-05-31T07:57:43.224Z,32.13
2018-05-31T08:00:10.774Z,31.36
2018-05-31T08:02:38.419Z,31.08
2018-05-31T08:05:05.992Z,30.94
2018-05-31T08:07:33.517Z,31.70
2018-05-31T08:10:01.029Z,31.06
2018-05-31T08:12:28.568Z,31.02
2018-05-31T08:14:56.384Z,31.36
2018-05-31T08:17:23.929Z,31.89
2018-05-31T08:19:51.844Z,31.72
2018-05-31T08:22:19.529Z,30.84
2018-05-31T08:24:47.054Z,30.95
2018-05-31T08:27:14.609Z,31.56
2018-05-31T08:29:42.128Z,32.44
2018-05-31T08:32:10.126Z,32.21
2018-05-31T08:34:37.665Z,32.58
2018-05-31T08:37:05.184Z,33.30
2018-05-31T08:39:32.744Z,33.52
2018-05-31T08:42:00.288Z,33.78
2018-05-31T08:44:27.956Z,34.12
2018-05-31T08:46:55.488Z,34.51
2018-05-31T08:49:23.373Z,33.95
2018-05-31T08:51:51.041Z,34.23
2018-05-31T08:54:18.561Z,34.28
2018-05-31T08:56:46.572Z,34.13
2018-05-31T08:59:14.089Z,35.16
2018-05-31T09:01:41.632Z,34.63
2018-05-31T09:04:09.186Z,34.71
2018-05-31T09:06:36.758Z,35.09
2018-05-31T09:09:04.677Z,35.32
2018-05-31T09:11:32.202Z,36.00
2018-05-31T09:13:59.817Z,36.63
2018-05-31T09:16:27.402Z,35.86
2018-05-31T09:18:55.103Z,36.70
2018-05-31T09:21:22.671Z,36.86
2018-05-31T09:23:50.194Z,37.07
2018-05-31T09:26:17.819Z,36.34
2018-05-31T09:28:45.376Z,37.26
2018-05-31T09:31:12.949Z,37.50
2018-05-31T09:33:40.781Z,38.54
2018-05-31T09:36:08.309Z,38.31
2018-05-31T09:38:35.840Z,38.85
2018-05-31T09:41:03.491Z,39.96
2018-05-31T09:43:31.022Z,40.52
2018-05-31T09:45:58.686Z,41.46
2018-05-31T09:48:26.265Z,41.74
2018-05-31T09:50:53.857Z,41.37
2018-05-31T09:53:21.401Z,41.59
2018-05-31T09:55:48.914Z,41.02
2018-05-31T09:58:16.870Z,40.47
2018-05-31T10:00:44.349Z,40.02
2018-05-31T10:03:11.873Z,41.12
2018-05-31T10:05:39.425Z,41.31
2018-05-31T10:08:07.144Z,42.18
2018-05-31T10:10:34.747Z,43.07
2018-05-31T10:13:02.264Z,42.19
2018-05-31T10:15:29.798Z,42.66
2018-05-31T10:17:57.366Z,42.69
2018-05-31T10:20:24.896Z,40.88
2018-05-31T10:22:52.697Z,42.37
2018-05-31T10:25:21.289Z,43.13
2018-05-31T10:27:48.829Z,44.12
2018-05-31T10:30:16.373Z,43.91
2018-05-31T10:32:43.889Z,44.33
2018-05-31T10:35:11.618Z,44.30
2018-05-31T10:37:39.291Z,44.21
2018-05-31T10:40:06.828Z,44.98
2018-05-31T10:42:34.397Z,45.01
2018-05-31T10:45:02.175Z,43.80
2018-05-31T10:47:30.698Z,43.41
2018-05-31T10:49:58.253Z,43.78
2018-05-31T10:52:26.027Z,44.27
2018-05-31T10:54:53.593Z,45.38
2018-05-31T10:57:21.116Z,45.45
2018-05-31T10:59:48.862Z,45.56
2018-05-31T11:02:16.569Z,46.75
2018-05-31T11:04:44.122Z,44.63
2018-05-31T11:07:12.272Z,43.47
2018-05-31T11:09:39.845Z,42.30
2018-05-31T11:12:08.278Z,42.14
2018-05-31T11:14:35.875Z,44.77
2018-05-31T11:17:03.619Z,44.55
2018-05-31T11:19:31.177Z,45.27
2018-05-31T11:21:59.052Z,46.48
2018-05-31T11:24:26.628Z,46.16
2018-05-31T11:26:54.334Z,46.64
2018-05-31T11:29:22.035Z,46.74
2018-05-31T11:31:49.796Z,46.97
2018-05-31T11:34:18.495Z,47.61
2018-05-31T11:36:46.656Z,45.56
2018-05-31T11:39:14.524Z,46.05
2018-05-31T11:41:42.335Z,45.18
2018-05-31T11:44:15.188Z,44.28
2018-05-31T11:46:43.072Z,45.43
2018-05-31T11:49:12.347Z,46.51
2018-05-31T11:51:40.164Z,46.14
2018-05-31T11:54:07.969Z,47.02
2018-05-31T11:56:35.841Z,47.25
2018-05-31T11:59:03.803Z,47.99
2018-05-31T12:01:31.776Z,46.78
2018-05-31T12:03:59.405Z,47.34
2018-05-31T12:06:27.203Z,46.43
2018-05-31T12:08:55.067Z,47.11
2018-05-31T12:11:22.680Z,47.62
2018-05-31T12:13:50.348Z,48.38
2018-05-31T12:16:17.902Z,47.52
2018-05-31T12:18:45.703Z,47.41
2018-05-31T12:21:13.341Z,47.27
2018-05-31T12:23:40.874Z,47.31
2018-05-31T12:26:08.763Z,47.75
2018-05-31T12:28:36.301Z,47.60
2018-05-31T12:31:03.840Z,48.72
2018-05-31T12:33:31.683Z,47.79
2018-05-31T12:35:59.446Z,46.80
2018-05-31T12:38:27.278Z,46.38
2018-05-31T12:40:54.874Z,45.23
2018-05-31T12:43:22.745Z,42.10
2018-05-31T12:45:50.271Z,41.07
2018-05-31T12:48:17.839Z,39.29
2018-05-31T12:50:45.609Z,37.20
2018-05-31T12:53:13.188Z,35.67
2018-05-31T12:55:41.545Z,34.42
2018-05-31T12:58:09.065Z,33.69
2018-05-31T13:00:36.591Z,33.19
2018-05-31T13:03:04.137Z,32.76
2018-05-31T13:05:31.773Z,33.71
2018-05-31T13:07:59.664Z,33.40
2018-05-31T13:10:27.229Z,32.93
2018-05-31T13:12:55.091Z,32.64
2018-05-31T13:15:22.854Z,32.02
2018-05-31T13:17:50.894Z,31.97
2018-05-31T13:20:19.429Z,31.69
2018-05-31T13:22:47.069Z,31.05
2018-05-31T13:25:14.866Z,30.99
2018-05-31T13:27:42.565Z,30.95
2018-05-31T13:30:10.361Z,30.75
2018-05-31T13:32:38.330Z,30.37
2018-05-31T13:35:06.199Z,29.92
2018-05-31T13:37:34.165Z,29.61
2018-05-31T13:40:01.937Z,29.18
2018-05-31T13:42:29.758Z,28.83
2018-05-31T13:44:57.457Z,28.44
2018-05-31T13:47:25.222Z,28.44
2018-05-31T13:49:52.864Z,28.01
2018-05-31T13:52:20.428Z,27.71
2018-05-31T13:54:48.070Z,27.64
2018-05-31T13:57:16.279Z,27.36
2018-05-31T13:59:43.865Z,27.23
2018-05-31T14:02:11.448Z,27.30
2018-05-31T14:04:39.371Z,27.01
2018-05-31T14:07:07.137Z,27.27
2018-05-31T14:09:35.389Z,27.47
2018-05-31T14:12:03.279Z,27.36
2018-05-31T14:14:31.037Z,27.88
2018-05-31T14:16:58.905Z,28.26
2018-05-31T14:19:26.566Z,29.31
2018-05-31T14:21:54.661Z,30.13
2018-05-31T14:24:25.328Z,30.81
2018-05-31T14:26:53.150Z,30.62
2018-05-31T14:29:20.796Z,30.61
2018-05-31T14:31:48.767Z,30.07
2018-05-31T14:34:17.280Z,29.81
2018-05-31T14:36:45.069Z,29.54
2018-05-31T14:39:12.984Z,29.56
2018-05-31T14:41:41.360Z,29.48
2018-05-31T14:44:09.226Z,29.60
2018-05-31T14:46:37.290Z,29.67
2018-05-31T14:49:05.166Z,29.79
2018-05-31T14:51:33.176Z,29.81
2018-05-31T14:54:01.106Z,30.00
2018-05-31T14:56:28.969Z,30.23
2018-05-31T14:58:56.938Z,29.88
2018-05-31T15:01:25.417Z,29.77
2018-05-31T15:03:53.286Z,30.05
2018-05-31T15:06:21.152Z,30.07
2018-05-31T15:08:49.018Z,30.09
2018-05-31T15:11:17.703Z,30.50
2018-05-31T15:13:45.268Z,30.83
2018-05-31T15:16:13.035Z,31.14
2018-05-31T15:18:40.926Z,31.12
2018-05-31T15:21:08.589Z,30.86
2018-05-31T15:23:36.437Z,30.70
2018-05-31T15:26:04.163Z,30.54
2018-05-31T15:28:31.746Z,30.69
2018-05-31T15:30:59.511Z,30.91
2018-05-31T15:33:27.268Z,30.80
2018-05-31T15:35:55.038Z,31.47
2018-05-31T15:38:22.804Z,31.52
2018-05-31T15:40:50.699Z,31.49
2018-05-31T15:43:18.541Z,31.78
2018-05-31T15:45:46.406Z,31.93
2018-05-31T15:48:14.781Z,31.90
2018-05-31T15:50:42.333Z,32.12
2018-05-31T15:53:10.207Z,32.17
2018-05-31T15:55:38.080Z,32.18
2018-05-31T15:58:06.722Z,32.07
2018-05-31T16:00:34.691Z,31.78
2018-05-31T16:03:02.800Z,31.56
2018-05-31T16:05:30.665Z,31.40
2018-05-31T16:07:58.594Z,31.12
2018-05-31T16:10:27.526Z,31.42
2018-05-31T16:12:55.601Z,31.57
2018-05-31T16:15:23.563Z,31.21
2018-05-31T16:17:51.535Z,31.44
2018-05-31T16:20:19.402Z,31.10
2018-05-31T16:22:47.164Z,31.29
2018-05-31T16:25:15.117Z,31.05
2018-05-31T16:27:43.103Z,31.04
2018-05-31T16:30:11.277Z,30.94
2018-05-31T16:35:11.926Z,30.98
2018-05-31T16:37:40.278Z,30.79
2018-05-31T16:40:08.282Z,30.79
2018-05-31T16:42:36.140Z,30.78
2018-05-31T16:45:04.892Z,30.89
2018-05-31T16:47:32.797Z,30.71
2018-05-31T16:50:00.959Z,30.88
2018-05-31T16:52:28.847Z,30.89
2018-05-31T16:54:56.389Z,30.73
2018-05-31T16:57:24.160Z,30.41
2018-05-31T16:59:51.821Z,30.30
2018-05-31T17:02:19.856Z,30.35
2018-05-31T17:04:47.446Z,30.03
2018-05-31T17:07:14.977Z,30.02
2018-05-31T17:09:42.982Z,30.26
2018-05-31T17:12:10.556Z,30.19
2018-05-31T17:14:38.273Z,30.24
2018-05-31T17:17:05.863Z,29.99
2018-05-31T17:19:33.574Z,30.11
2018-05-31T17:22:01.271Z,29.97
2018-05-31T17:24:28.789Z,30.07
2018-05-31T17:26:56.613Z,29.75
2018-05-31T17:29:24.148Z,29.72
2018-05-31T17:31:51.789Z,29.77
2018-05-31T17:34:19.349Z,29.74
2018-05-31T17:36:47.029Z,29.58
2018-05-31T17:39:14.921Z,29.50
2018-05-31T17:41:42.442Z,29.25
2018-05-31T17:44:10.135Z,29.27
2018-05-31T17:46:37.804Z,29.14
2018-05-31T17:49:05.471Z,28.88
2018-05-31T17:51:33.056Z,28.96
2018-05-31T17:54:00.581Z,28.99
2018-05-31T17:56:28.092Z,28.89
2018-05-31T17:58:55.780Z,28.83
2018-05-31T18:01:23.431Z,28.67
2018-05-31T18:03:51.044Z,28.51
2018-05-31T18:06:18.570Z,28.51
2018-05-31T18:08:46.750Z,28.37
2018-05-31T18:11:14.353Z,28.36
2018-05-31T18:13:41.882Z,28.27
2018-05-31T18:16:09.449Z,28.11
2018-05-31T18:18:37.025Z,28.05
2018-05-31T18:21:04.554Z,27.89
2018-05-31T18:23:32.115Z,27.86
2018-05-31T18:25:59.655Z,27.81
2018-05-31T18:28:27.644Z,27.67
2018-05-31T18:30:55.613Z,27.54
2018-05-31T18:33:23.587Z,27.28
2018-05-31T18:35:51.512Z,27.22
2018-05-31T18:38:19.184Z,27.23
2018-05-31T18:40:46.790Z,27.19
2018-05-31T18:43:14.348Z,27.25
2018-05-31T18:45:42.918Z,27.22
2018-05-31T18:48:10.778Z,27.12
2018-05-31T18:50:38.446Z,27.17
2018-05-31T18:53:06.207Z,27.00
2018-05-31T18:55:34.036Z,26.91
2018-05-31T18:58:02.653Z,26.90
2018-05-31T19:00:30.470Z,26.83
2018-05-31T19:02:58.289Z,26.89
2018-05-31T19:05:26.149Z,26.95
2018-05-31T19:07:55.051Z,26.90
2018-05-31T19:10:22.913Z,26.81
2018-05-31T19:12:56.411Z,26.85
2018-05-31T19:15:24.224Z,26.87
2018-05-31T19:17:52.147Z,26.88
2018-05-31T19:20:19.909Z,26.78
2018-05-31T19:22:47.569Z,26.78
2018-05-31T19:25:20.357Z,26.68
2018-05-31T19:27:48.118Z,26.65
2018-05-31T19:30:21.423Z,26.34
2018-05-31T19:32:49.646Z,26.48
2018-05-31T19:35:24.004Z,26.50
2018-05-31T19:37:51.876Z,26.44
2018-05-31T19:40:19.839Z,26.49
2018-05-31T19:42:53.442Z,26.48
2018-05-31T19:45:21.511Z,26.47
2018-05-31T19:47:49.452Z,26.42
2018-05-31T19:50:18.171Z,26.45
2018-05-31T19:52:51.662Z,26.36
2018-05-31T19:55:19.531Z,26.33
2018-05-31T19:57:53.183Z,26.27
2018-05-31T20:00:26.435Z,26.28
2018-05-31T20:03:00.748Z,26.28
2018-05-31T20:05:28.712Z,26.24
2018-05-31T20:07:56.579Z,26.25
2018-05-31T20:10:24.455Z,26.11
2018-05-31T20:12:52.320Z,26.23
2018-05-31T20:15:20.139Z,26.17
2018-05-31T20:17:47.938Z,26.24
2018-05-31T20:20:15.605Z,27.14
2018-05-31T20:22:43.576Z,27.32
2018-05-31T20:25:11.338Z,27.43
2018-05-31T20:27:39.513Z,27.69
2018-05-31T20:30:08.144Z,27.72
2018-05-31T20:32:36.001Z,27.62
2018-05-31T20:35:03.932Z,27.69
2018-05-31T20:37:32.515Z,27.78
2018-05-31T20:40:00.586Z,27.89
2018-05-31T20:42:28.630Z,27.73
2018-05-31T20:44:56.630Z,26.29
2018-05-31T20:47:24.491Z,26.07
2018-05-31T20:49:52.257Z,26.01
2018-05-31T20:52:20.600Z,26.01
2018-05-31T20:54:49.322Z,25.90
2018-05-31T20:57:17.161Z,25.97
2018-05-31T20:59:44.850Z,25.90
2018-05-31T21:02:12.617Z,25.77
2018-05-31T21:04:40.790Z,25.90
2018-05-31T21:07:09.269Z,25.93
2018-05-31T21:09:36.836Z,25.73
2018-05-31T21:12:04.810Z,25.77
2018-05-31T21:14:32.668Z,25.81
2018-05-31T21:17:00.733Z,25.82
2018-05-31T21:19:28.444Z,25.82
2018-05-31T21:21:56.263Z,25.87
2018-05-31T21:24:24.232Z,25.89
2018-05-31T21:26:52.098Z,25.94
2018-05-31T21:29:20.212Z,25.96
2018-05-31T21:31:47.907Z,25.94
2018-05-31T21:34:15.597Z,25.94
2018-05-31T21:36:43.347Z,25.99
2018-05-31T21:39:10.893Z,25.95
2018-05-31T21:41:38.573Z,25.84
2018-05-31T21:44:06.117Z,26.02
2018-05-31T21:46:33.701Z,26.01
2018-05-31T21:49:01.670Z,25.98
2018-05-31T21:51:29.387Z,26.01
2018-05-31T21:53:57.248Z,25.46
2018-05-31T21:56:24.793Z,24.85
2018-05-31T21:58:52.336Z,24.58
2018-05-31T22:01:19.943Z,22.96
2018-05-31T22:03:47.643Z,20.17
2018-05-31T22:06:15.384Z,19.17
2018-05-31T22:08:43.151Z,18.37
2018-05-31T22:11:10.672Z,17.79
2018-05-31T22:13:38.594Z,17.34
2018-05-31T22:16:06.158Z,17.28
2018-05-31T22:18:34.228Z,16.94
2018-05-31T22:21:01.823Z,16.97
2018-05-31T22:23:29.446Z,17.13
2018-05-31T22:25:57.015Z,17.26
2018-05-31T22:28:24.597Z,17.78
2018-05-31T22:30:52.804Z,17.87
2018-05-31T22:33:20.622Z,17.98
2018-05-31T22:35:48.135Z,17.75
2018-05-31T22:38:15.821Z,18.00
2018-05-31T22:40:43.341Z,17.92
2018-05-31T22:43:11.359Z,17.88
2018-05-31T22:45:38.877Z,17.64
2018-05-31T22:48:06.528Z,17.97
2018-05-31T22:50:34.082Z,18.43
2018-05-31T22:53:01.624Z,18.38
2018-05-31T22:55:29.445Z,18.75
2018-05-31T22:57:56.973Z,18.60
2018-05-31T23:00:24.492Z,18.22
2018-05-31T23:02:52.065Z,18.20
2018-05-31T23:05:19.569Z,18.12
2018-05-31T23:07:47.113Z,18.15
2018-05-31T23:10:14.640Z,17.69
2018-05-31T23:12:42.157Z,17.92
2018-05-31T23:15:10.244Z,17.80
2018-05-31T23:17:37.770Z,17.99
2018-05-31T23:20:05.324Z,18.00
2018-05-31T23:22:32.843Z,18.18
2018-05-31T23:25:00.357Z,18.04
2018-05-31T23:27:27.896Z,18.00
2018-05-31T23:29:55.424Z,18.41
2018-05-31T23:32:22.982Z,18.10
2018-05-31T23:34:50.507Z,18.39
2018-05-31T23:37:18.032Z,17.89
2018-05-31T23:39:45.583Z,17.72
2018-05-31T23:42:13.101Z,17.51
2018-05-31T23:44:40.685Z,17.49
2018-05-31T23:47:08.213Z,17.48
2018-05-31T23:49:35.774Z,17.44
2018-05-31T23:52:03.313Z,17.49
2018-05-31T23:54:30.838Z,17.53
2018-05-31T23:56:58.532Z,17.70
2018-05-31T23:59:26.057Z,17.61
